sensor_id;sensor_type;location;lat;lon;timestamp;pressure;altitude;pressure_sealevel;temperature;humidity
34103;BME280;20381;54.498;18.206;2022-07-26T00:01:53;98736.76;;;21.16;54.15
34103;BME280;20381;54.498;18.206;2022-07-26T00:04:20;98729.78;;;21.11;54.21
34103;BME280;20381;54.498;18.206;2022-07-26T00:06:59;98726.13;;;21.08;54.25
34103;BME280;20381;54.498;18.206;2022-07-26T00:09:26;98723.81;;;21.01;54.35
34103;BME280;20381;54.498;18.206;2022-07-26T00:11:53;98718.83;;;20.98;54.42
34103;BME280;20381;54.498;18.206;2022-07-26T00:14:19;98701.56;;;20.94;54.54
34103;BME280;20381;54.498;18.206;2022-07-26T00:16:46;98705.55;;;20.90;54.64
34103;BME280;20381;54.498;18.206;2022-07-26T00:19:13;98700.24;;;20.90;54.71
34103;BME280;20381;54.498;18.206;2022-07-26T00:21:40;98692.61;;;20.91;54.80
34103;BME280;20381;54.498;18.206;2022-07-26T00:24:07;98692.92;;;20.92;54.85
34103;BME280;20381;54.498;18.206;2022-07-26T00:26:34;98686.65;;;20.93;54.91
34103;BME280;20381;54.498;18.206;2022-07-26T00:31:43;98678.69;;;20.93;55.01
34103;BME280;20381;54.498;18.206;2022-07-26T00:34:09;98678.02;;;20.91;55.09
34103;BME280;20381;54.498;18.206;2022-07-26T00:36:36;98674.53;;;20.90;55.14
34103;BME280;20381;54.498;18.206;2022-07-26T00:39:03;98679.99;;;20.89;55.22
34103;BME280;20381;54.498;18.206;2022-07-26T00:41:30;98679.34;;;20.87;55.28
34103;BME280;20381;54.498;18.206;2022-07-26T00:43:58;98678.32;;;20.84;55.36
34103;BME280;20381;54.498;18.206;2022-07-26T00:46:25;98680.66;;;20.83;55.40
34103;BME280;20381;54.498;18.206;2022-07-26T00:48:52;98674.85;;;20.79;55.45
34103;BME280;20381;54.498;18.206;2022-07-26T00:51:20;98673.35;;;20.76;55.51
34103;BME280;20381;54.498;18.206;2022-07-26T00:53:48;98677.16;;;20.74;55.60
34103;BME280;20381;54.498;18.206;2022-07-26T00:56:16;98682.47;;;20.70;55.67
34103;BME280;20381;54.498;18.206;2022-07-26T00:58:43;98691.08;;;20.68;55.76
34103;BME280;20381;54.498;18.206;2022-07-26T01:01:11;98682.63;;;20.64;55.80
34103;BME280;20381;54.498;18.206;2022-07-26T01:03:37;98687.25;;;20.62;55.89
34103;BME280;20381;54.498;18.206;2022-07-26T01:06:04;98689.22;;;20.60;56.00
34103;BME280;20381;54.498;18.206;2022-07-26T01:08:31;98689.55;;;20.57;56.04
34103;BME280;20381;54.498;18.206;2022-07-26T01:10:58;98691.52;;;20.55;56.09
34103;BME280;20381;54.498;18.206;2022-07-26T01:13:25;98690.87;;;20.53;56.15
34103;BME280;20381;54.498;18.206;2022-07-26T01:15:52;98697.45;;;20.49;56.19
34103;BME280;20381;54.498;18.206;2022-07-26T01:18:19;98694.80;;;20.45;56.23
34103;BME280;20381;54.498;18.206;2022-07-26T01:20:47;98691.43;;;20.39;56.31
34103;BME280;20381;54.498;18.206;2022-07-26T01:23:15;98696.70;;;20.30;56.39
34103;BME280;20381;54.498;18.206;2022-07-26T01:25:42;98700.99;;;20.23;56.47
34103;BME280;20381;54.498;18.206;2022-07-26T01:28:09;98701.78;;;20.16;56.57
34103;BME280;20381;54.498;18.206;2022-07-26T01:30:36;98698.27;;;20.07;56.65
34103;BME280;20381;54.498;18.206;2022-07-26T01:33:03;98697.89;;;19.98;56.75
34103;BME280;20381;54.498;18.206;2022-07-26T01:36:54;98687.56;;;19.86;57.02
34103;BME280;20381;54.498;18.206;2022-07-26T01:39:22;98684.83;;;19.74;56.99
34103;BME280;20381;54.498;18.206;2022-07-26T01:41:48;98680.80;;;19.66;57.04
34103;BME280;20381;54.498;18.206;2022-07-26T01:44:15;98686.36;;;19.59;57.29
34103;BME280;20381;54.498;18.206;2022-07-26T01:46:41;98685.30;;;19.52;57.27
34103;BME280;20381;54.498;18.206;2022-07-26T01:49:08;98678.67;;;19.48;57.44
34103;BME280;20381;54.498;18.206;2022-07-26T01:51:35;98678.30;;;19.42;57.48
34103;BME280;20381;54.498;18.206;2022-07-26T01:54:02;98672.13;;;19.38;57.57
34103;BME280;20381;54.498;18.206;2022-07-26T01:56:29;98669.98;;;19.37;57.75
34103;BME280;20381;54.498;18.206;2022-07-26T01:58:56;98667.95;;;19.31;57.85
34103;BME280;20381;54.498;18.206;2022-07-26T02:01:22;98680.88;;;19.34;57.96
34103;BME280;20381;54.498;18.206;2022-07-26T02:03:49;98682.52;;;19.31;58.11
34103;BME280;20381;54.498;18.206;2022-07-26T02:06:16;98679.19;;;19.29;58.19
34103;BME280;20381;54.498;18.206;2022-07-26T02:08:43;98671.60;;;19.30;58.31
34103;BME280;20381;54.498;18.206;2022-07-26T02:11:09;98678.41;;;19.33;58.42
34103;BME280;20381;54.498;18.206;2022-07-26T02:13:38;98679.92;;;19.35;58.50
34103;BME280;20381;54.498;18.206;2022-07-26T02:16:08;98677.09;;;19.37;58.59
34103;BME280;20381;54.498;18.206;2022-07-26T02:18:36;98683.91;;;19.39;58.69
34103;BME280;20381;54.498;18.206;2022-07-26T02:21:05;98693.19;;;19.43;58.71
34103;BME280;20381;54.498;18.206;2022-07-26T02:23:33;98704.32;;;19.47;58.83
34103;BME280;20381;54.498;18.206;2022-07-26T02:26:00;98711.13;;;19.50;58.88
34103;BME280;20381;54.498;18.206;2022-07-26T02:28:27;98718.40;;;19.52;58.94
34103;BME280;20381;54.498;18.206;2022-07-26T02:30:54;98725.70;;;19.54;58.99
34103;BME280;20381;54.498;18.206;2022-07-26T02:33:21;98732.65;;;19.55;59.01
34103;BME280;20381;54.498;18.206;2022-07-26T02:35:47;98727.35;;;19.55;59.07
34103;BME280;20381;54.498;18.206;2022-07-26T02:38:15;98725.70;;;19.54;59.15
34103;BME280;20381;54.498;18.206;2022-07-26T02:40:42;98728.98;;;19.52;59.15
34103;BME280;20381;54.498;18.206;2022-07-26T02:43:10;98741.40;;;19.51;59.21
34103;BME280;20381;54.498;18.206;2022-07-26T02:45:36;98741.57;;;19.50;59.33
34103;BME280;20381;54.498;18.206;2022-07-26T02:48:04;98744.86;;;19.48;59.44
34103;BME280;20381;54.498;18.206;2022-07-26T02:50:31;98748.50;;;19.47;59.38
34103;BME280;20381;54.498;18.206;2022-07-26T02:52:58;98747.50;;;19.48;59.43
34103;BME280;20381;54.498;18.206;2022-07-26T02:55:25;98752.80;;;19.48;59.50
34103;BME280;20381;54.498;18.206;2022-07-26T02:57:52;98730.09;;;19.41;59.50
34103;BME280;20381;54.498;18.206;2022-07-26T03:00:21;98748.83;;;19.48;59.59
34103;BME280;20381;54.498;18.206;2022-07-26T03:02:49;98747.17;;;19.47;59.60
34103;BME280;20381;54.498;18.206;2022-07-26T03:05:17;98735.59;;;19.48;59.68
34103;BME280;20381;54.498;18.206;2022-07-26T03:07:44;98724.67;;;19.47;59.82
34103;BME280;20381;54.498;18.206;2022-07-26T03:10:11;98724.67;;;19.47;59.82
34103;BME280;20381;54.498;18.206;2022-07-26T03:12:37;98713.09;;;19.48;60.04
34103;BME280;20381;54.498;18.206;2022-07-26T03:15:05;98711.44;;;19.47;60.06
34103;BME280;20381;54.498;18.206;2022-07-26T03:17:32;98717.70;;;19.45;60.12
34103;BME280;20381;54.498;18.206;2022-07-26T03:19:59;98711.44;;;19.47;60.24
34103;BME280;20381;54.498;18.206;2022-07-26T03:22:27;98723.81;;;19.46;60.34
34103;BME280;20381;54.498;18.206;2022-07-26T03:24:53;98726.00;;;19.47;60.60
34103;BME280;20381;54.498;18.206;2022-07-26T03:27:20;98724.94;;;19.39;60.91
34103;BME280;20381;54.498;18.206;2022-07-26T03:29:47;98722.55;;;19.32;61.15
34103;BME280;20381;54.498;18.206;2022-07-26T03:32:13;98725.80;;;19.26;61.56
34103;BME280;20381;54.498;18.206;2022-07-26T03:34:40;98734.88;;;19.23;61.78
34103;BME280;20381;54.498;18.206;2022-07-26T03:37:07;98745.77;;;19.20;62.03
34103;BME280;20381;54.498;18.206;2022-07-26T03:39:34;98750.37;;;19.18;62.34
34103;BME280;20381;54.498;18.206;2022-07-26T03:42:03;98741.61;;;19.18;62.51
34103;BME280;20381;54.498;18.206;2022-07-26T03:44:30;98748.89;;;19.16;62.72
34103;BME280;20381;54.498;18.206;2022-07-26T03:46:57;98754.84;;;19.18;63.02
34103;BME280;20381;54.498;18.206;2022-07-26T03:49:24;98759.16;;;19.19;63.27
34103;BME280;20381;54.498;18.206;2022-07-26T03:51:51;98770.33;;;19.13;63.82
34103;BME280;20381;54.498;18.206;2022-07-26T03:54:18;98772.31;;;19.11;63.69
34103;BME280;20381;54.498;18.206;2022-07-26T03:56:44;98763.38;;;19.12;64.15
34103;BME280;20381;54.498;18.206;2022-07-26T03:59:11;98755.42;;;19.08;64.25
34103;BME280;20381;54.498;18.206;2022-07-26T04:01:38;98762.55;;;19.11;64.45
34103;BME280;20381;54.498;18.206;2022-07-26T04:04:14;98768.38;;;19.15;64.62
34103;BME280;20381;54.498;18.206;2022-07-26T04:06:44;98778.27;;;19.13;64.91
34103;BME280;20381;54.498;18.206;2022-07-26T04:09:12;98732.27;;;19.10;65.93
34103;BME280;20381;54.498;18.206;2022-07-26T04:11:40;98758.31;;;19.00;66.17
34103;BME280;20381;54.498;18.206;2022-07-26T04:14:08;98775.38;;;18.88;65.70
34103;BME280;20381;54.498;18.206;2022-07-26T04:16:35;98768.70;;;18.84;66.04
34103;BME280;20381;54.498;18.206;2022-07-26T04:19:02;98756.41;;;18.79;66.39
34103;BME280;20381;54.498;18.206;2022-07-26T04:21:28;98775.09;;;18.68;66.56
34103;BME280;20381;54.498;18.206;2022-07-26T04:23:55;98786.95;;;18.64;66.75
34103;BME280;20381;54.498;18.206;2022-07-26T04:26:22;98793.56;;;18.64;67.20
34103;BME280;20381;54.498;18.206;2022-07-26T04:28:49;98804.84;;;18.66;67.32
34103;BME280;20381;54.498;18.206;2022-07-26T04:31:15;98812.80;;;18.70;67.77
34103;BME280;20381;54.498;18.206;2022-07-26T04:33:42;98814.13;;;18.70;67.65
34103;BME280;20381;54.498;18.206;2022-07-26T04:36:09;98819.28;;;18.71;67.84
34103;BME280;20381;54.498;18.206;2022-07-26T04:38:36;98817.47;;;18.72;68.00
34103;BME280;20381;54.498;18.206;2022-07-26T04:41:02;98823.88;;;18.69;68.17
34103;BME280;20381;54.498;18.206;2022-07-26T04:43:29;98833.92;;;18.66;68.40
34103;BME280;20381;54.498;18.206;2022-07-26T04:45:56;98824.59;;;18.62;68.48
34103;BME280;20381;54.498;18.206;2022-07-26T04:48:24;98829.64;;;18.55;68.85
34103;BME280;20381;54.498;18.206;2022-07-26T04:50:51;98836.34;;;18.49;68.91
34103;BME280;20381;54.498;18.206;2022-07-26T04:53:18;98840.11;;;18.47;69.11
34103;BME280;20381;54.498;18.206;2022-07-26T04:55:45;98838.25;;;18.43;69.29
34103;BME280;20381;54.498;18.206;2022-07-26T04:58:12;98835.53;;;18.39;69.85
34103;BME280;20381;54.498;18.206;2022-07-26T05:00:38;98821.08;;;18.33;69.98
34103;BME280;20381;54.498;18.206;2022-07-26T05:03:06;98823.48;;;18.27;70.24
34103;BME280;20381;54.498;18.206;2022-07-26T05:05:33;98807.50;;;18.19;70.50
34103;BME280;20381;54.498;18.206;2022-07-26T05:08:01;98807.95;;;18.04;71.29
34103;BME280;20381;54.498;18.206;2022-07-26T05:10:33;98824.25;;;17.90;70.79
34103;BME280;20381;54.498;18.206;2022-07-26T05:13:04;98824.00;;;17.78;71.41
34103;BME280;20381;54.498;18.206;2022-07-26T05:15:32;98799.89;;;17.67;71.82
34103;BME280;20381;54.498;18.206;2022-07-26T05:18:04;98815.19;;;17.63;72.37
34103;BME280;20381;54.498;18.206;2022-07-26T05:20:32;98806.84;;;17.58;72.42
34103;BME280;20381;54.498;18.206;2022-07-26T05:22:59;98797.27;;;17.57;73.20
34103;BME280;20381;54.498;18.206;2022-07-26T05:25:26;98804.48;;;17.55;72.94
34103;BME280;20381;54.498;18.206;2022-07-26T05:27:53;98812.50;;;17.59;72.87
34103;BME280;20381;54.498;18.206;2022-07-26T05:30:20;98819.91;;;17.70;73.10
34103;BME280;20381;54.498;18.206;2022-07-26T05:32:47;98819.00;;;17.75;73.35
34103;BME280;20381;54.498;18.206;2022-07-26T05:35:14;98819.37;;;17.76;73.10
34103;BME280;20381;54.498;18.206;2022-07-26T05:37:41;98813.72;;;17.75;73.16
34103;BME280;20381;54.498;18.206;2022-07-26T05:40:09;98819.28;;;17.72;73.40
34103;BME280;20381;54.498;18.206;2022-07-26T05:42:36;98820.19;;;17.66;73.43
34103;BME280;20381;54.498;18.206;2022-07-26T05:45:04;98816.17;;;17.62;73.79
34103;BME280;20381;54.498;18.206;2022-07-26T05:47:32;98815.47;;;17.60;73.78
34103;BME280;20381;54.498;18.206;2022-07-26T05:49:59;98809.20;;;17.61;73.89
34103;BME280;20381;54.498;18.206;2022-07-26T05:52:25;98813.81;;;17.59;74.11
34103;BME280;20381;54.498;18.206;2022-07-26T05:54:52;98822.98;;;17.65;74.22
34103;BME280;20381;54.498;18.206;2022-07-26T05:57:19;98829.84;;;17.72;74.44
34103;BME280;20381;54.498;18.206;2022-07-26T05:59:46;98817.84;;;17.83;74.75
34103;BME280;20381;54.498;18.206;2022-07-26T06:02:12;98809.36;;;17.89;74.62
34103;BME280;20381;54.498;18.206;2022-07-26T06:04:39;98821.32;;;17.93;74.72
34103;BME280;20381;54.498;18.206;2022-07-26T06:07:06;98823.06;;;17.98;74.91
34103;BME280;20381;54.498;18.206;2022-07-26T06:09:32;98832.35;;;18.02;74.91
34103;BME280;20381;54.498;18.206;2022-07-26T06:11:59;98843.62;;;18.04;74.95
34103;BME280;20381;54.498;18.206;2022-07-26T06:14:26;98843.95;;;18.05;75.01
34103;BME280;20381;54.498;18.206;2022-07-26T06:16:53;98842.16;;;17.96;75.04
34103;BME280;20381;54.498;18.206;2022-07-26T06:19:21;98845.64;;;17.97;75.29
34103;BME280;20381;54.498;18.206;2022-07-26T06:21:48;98849.52;;;18.02;75.45
34103;BME280;20381;54.498;18.206;2022-07-26T06:24:14;98861.74;;;18.03;75.47
34103;BME280;20381;54.498;18.206;2022-07-26T06:26:41;98856.13;;;18.02;75.68
34103;BME280;20381;54.498;18.206;2022-07-26T06:29:08;98861.00;;;18.07;75.75
34103;BME280;20381;54.498;18.206;2022-07-26T06:31:35;98863.06;;;18.13;75.85
34103;BME280;20381;54.498;18.206;2022-07-26T06:34:02;98870.05;;;18.28;76.12
34103;BME280;20381;54.498;18.206;2022-07-26T06:36:28;98868.23;;;18.38;76.02
34103;BME280;20381;54.498;18.206;2022-07-26T06:38:55;98875.92;;;18.45;76.04
34103;BME280;20381;54.498;18.206;2022-07-26T06:41:22;98879.33;;;18.51;76.10
34103;BME280;20381;54.498;18.206;2022-07-26T06:43:49;98878.46;;;18.61;76.28
34103;BME280;20381;54.498;18.206;2022-07-26T06:46:16;98867.38;;;18.71;76.29
34103;BME280;20381;54.498;18.206;2022-07-26T06:48:44;98873.83;;;18.82;76.41
34103;BME280;20381;54.498;18.206;2022-07-26T06:51:10;98882.90;;;18.93;76.52
34103;BME280;20381;54.498;18.206;2022-07-26T06:53:37;98887.01;;;19.06;76.53
34103;BME280;20381;54.498;18.206;2022-07-26T06:56:04;98885.59;;;19.11;76.09
34103;BME280;20381;54.498;18.206;2022-07-26T06:58:32;98883.44;;;19.11;76.26
34103;BME280;20381;54.498;18.206;2022-07-26T07:00:59;98881.95;;;18.98;76.15
34103;BME280;20381;54.498;18.206;2022-07-26T07:03:25;98875.19;;;18.86;76.16
34103;BME280;20381;54.498;18.206;2022-07-26T07:05:54;98869.76;;;18.74;76.23
34103;BME280;20381;54.498;18.206;2022-07-26T07:08:20;98876.06;;;18.67;76.54
34103;BME280;20381;54.498;18.206;2022-07-26T07:10:49;98883.50;;;18.68;76.74
34103;BME280;20381;54.498;18.206;2022-07-26T07:13:17;98881.77;;;18.82;77.07
34103;BME280;20381;54.498;18.206;2022-07-26T07:15:44;98877.05;;;19.04;76.99
34103;BME280;20381;54.498;18.206;2022-07-26T07:18:11;98874.51;;;19.12;76.85
34103;BME280;20381;54.498;18.206;2022-07-26T07:20:39;98870.76;;;19.32;77.14
34103;BME280;20381;54.498;18.206;2022-07-26T07:23:06;98883.32;;;19.62;77.19
34103;BME280;20381;54.498;18.206;2022-07-26T07:25:33;98890.20;;;19.86;77.10
34103;BME280;20381;54.498;18.206;2022-07-26T07:27:59;98886.97;;;19.97;76.75
34103;BME280;20381;54.498;18.206;2022-07-26T07:30:26;98890.36;;;20.03;76.67
34103;BME280;20381;54.498;18.206;2022-07-26T07:32:53;98895.48;;;20.04;76.58
34103;BME280;20381;54.498;18.206;2022-07-26T07:35:20;98899.59;;;20.21;76.99
34103;BME280;20381;54.498;18.206;2022-07-26T07:37:47;98906.48;;;20.35;76.90
34103;BME280;20381;54.498;18.206;2022-07-26T07:40:14;98910.97;;;20.35;76.47
34103;BME280;20381;54.498;18.206;2022-07-26T07:42:41;98915.44;;;20.34;76.74
34103;BME280;20381;54.498;18.206;2022-07-26T07:45:08;98914.38;;;20.71;77.73
34103;BME280;20381;54.498;18.206;2022-07-26T07:47:36;98904.48;;;21.58;78.17
34103;BME280;20381;54.498;18.206;2022-07-26T07:50:03;98908.35;;;22.09;76.78
34103;BME280;20381;54.498;18.206;2022-07-26T07:52:31;98912.55;;;22.24;76.04
34103;BME280;20381;54.498;18.206;2022-07-26T07:54:58;98919.03;;;22.29;75.71
34103;BME280;20381;54.498;18.206;2022-07-26T07:57:24;98917.16;;;22.54;76.02
34103;BME280;20381;54.498;18.206;2022-07-26T07:59:51;98918.14;;;22.70;75.65
34103;BME280;20381;54.498;18.206;2022-07-26T08:02:18;98920.42;;;22.89;75.09
34103;BME280;20381;54.498;18.206;2022-07-26T08:04:44;98926.08;;;22.82;74.49
34103;BME280;20381;54.498;18.206;2022-07-26T08:07:11;98930.30;;;22.56;74.15
34103;BME280;20381;54.498;18.206;2022-07-26T08:09:38;98934.13;;;22.53;74.35
34103;BME280;20381;54.498;18.206;2022-07-26T08:12:05;98936.94;;;22.64;74.28
34103;BME280;20381;54.498;18.206;2022-07-26T08:14:31;98930.11;;;22.70;74.10
34103;BME280;20381;54.498;18.206;2022-07-26T08:16:58;98923.09;;;22.81;74.23
34103;BME280;20381;54.498;18.206;2022-07-26T08:19:24;98921.48;;;23.28;74.10
34103;BME280;20381;54.498;18.206;2022-07-26T08:21:51;98915.53;;;23.49;73.57
34103;BME280;20381;54.498;18.206;2022-07-26T08:24:18;98910.78;;;23.67;73.44
34103;BME280;20381;54.498;18.206;2022-07-26T08:26:44;98910.55;;;24.04;73.10
34103;BME280;20381;54.498;18.206;2022-07-26T08:29:11;98911.34;;;24.27;72.86
34103;BME280;20381;54.498;18.206;2022-07-26T08:31:40;98908.80;;;24.53;72.48
34103;BME280;20381;54.498;18.206;2022-07-26T08:34:07;98918.41;;;24.62;71.87
34103;BME280;20381;54.498;18.206;2022-07-26T08:36:34;98919.21;;;24.48;71.18
34103;BME280;20381;54.498;18.206;2022-07-26T08:39:01;98915.09;;;24.56;71.64
34103;BME280;20381;54.498;18.206;2022-07-26T08:41:29;98918.58;;;24.75;71.11
34103;BME280;20381;54.498;18.206;2022-07-26T08:44:07;98925.59;;;24.76;70.64
34103;BME280;20381;54.498;18.206;2022-07-26T08:46:37;98924.34;;;24.83;70.48
34103;BME280;20381;54.498;18.206;2022-07-26T08:49:06;98916.69;;;24.95;70.19
34103;BME280;20381;54.498;18.206;2022-07-26T08:51:40;98917.02;;;25.26;69.96
34103;BME280;20381;54.498;18.206;2022-07-26T08:54:10;98914.21;;;25.38;69.16
34103;BME280;20381;54.498;18.206;2022-07-26T08:56:48;98917.22;;;25.50;69.17
34103;BME280;20381;54.498;18.206;2022-07-26T08:59:18;98923.56;;;25.38;68.47
34103;BME280;20381;54.498;18.206;2022-07-26T09:01:50;98916.33;;;25.53;68.26
34103;BME280;20381;54.498;18.206;2022-07-26T09:04:20;98911.33;;;25.76;67.86
34103;BME280;20381;54.498;18.206;2022-07-26T09:07:00;98916.09;;;25.70;67.40
34103;BME280;20381;54.498;18.206;2022-07-26T09:09:36;98919.06;;;25.96;67.53
34103;BME280;20381;54.498;18.206;2022-07-26T09:12:20;98930.66;;;26.25;66.68
34103;BME280;20381;54.498;18.206;2022-07-26T09:14:45;98929.77;;;26.18;66.08
34103;BME280;20381;54.498;18.206;2022-07-26T09:17:16;98918.89;;;26.08;65.68
34103;BME280;20381;54.498;18.206;2022-07-26T09:19:44;98925.64;;;25.83;65.15
34103;BME280;20381;54.498;18.206;2022-07-26T09:22:14;98935.41;;;25.50;64.23
34103;BME280;20381;54.498;18.206;2022-07-26T09:24:45;98936.92;;;25.38;65.14
34103;BME280;20381;54.498;18.206;2022-07-26T09:27:16;98924.23;;;25.61;65.05
34103;BME280;20381;54.498;18.206;2022-07-26T09:32:24;98922.77;;;25.95;64.30
34103;BME280;20381;54.498;18.206;2022-07-26T09:34:54;98920.55;;;25.88;63.56
34103;BME280;20381;54.498;18.206;2022-07-26T09:37:36;98922.23;;;25.85;63.13
34103;BME280;20381;54.498;18.206;2022-07-26T09:40:12;98939.78;;;25.73;62.84
34103;BME280;20381;54.498;18.206;2022-07-26T09:43:03;98934.81;;;25.70;62.57
34103;BME280;20381;54.498;18.206;2022-07-26T09:45:34;98932.14;;;25.70;62.60
34103;BME280;20381;54.498;18.206;2022-07-26T09:48:03;98932.83;;;25.67;62.14
34103;BME280;20381;54.498;18.206;2022-07-26T09:50:34;98939.49;;;25.46;61.63
34103;BME280;20381;54.498;18.206;2022-07-26T09:53:10;98931.89;;;25.39;61.72
34103;BME280;20381;54.498;18.206;2022-07-26T09:58:20;98944.39;;;25.28;60.99
34103;BME280;20381;54.498;18.206;2022-07-26T10:00:48;98946.26;;;25.08;60.91
34103;BME280;20381;54.498;18.206;2022-07-26T10:03:14;98948.25;;;25.10;60.84
34103;BME280;20381;54.498;18.206;2022-07-26T10:05:41;98951.77;;;24.92;60.11
34103;BME280;20381;54.498;18.206;2022-07-26T10:08:08;98953.36;;;24.67;60.11
34103;BME280;20381;54.498;18.206;2022-07-26T10:10:44;98949.48;;;24.55;60.42
34103;BME280;20381;54.498;18.206;2022-07-26T10:13:13;98946.00;;;24.69;60.41
34103;BME280;20381;54.498;18.206;2022-07-26T10:15:49;98945.84;;;25.00;60.54
34103;BME280;20381;54.498;18.206;2022-07-26T10:18:40;98950.11;;;25.25;59.93
34103;BME280;20381;54.498;18.206;2022-07-26T10:21:27;98952.03;;;25.31;59.58
34103;BME280;20381;54.498;18.206;2022-07-26T10:24:03;98947.88;;;25.13;59.12
34103;BME280;20381;54.498;18.206;2022-07-26T10:26:35;98949.08;;;24.96;59.12
34103;BME280;20381;54.498;18.206;2022-07-26T10:31:47;98958.44;;;24.62;58.48
34103;BME280;20381;54.498;18.206;2022-07-26T10:34:35;98967.72;;;24.24;57.68
34103;BME280;20381;54.498;18.206;2022-07-26T10:37:09;98982.06;;;23.73;57.94
34103;BME280;20381;54.498;18.206;2022-07-26T10:39:34;98987.84;;;23.37;58.01
34103;BME280;20381;54.498;18.206;2022-07-26T10:42:07;98986.73;;;23.28;58.10
34103;BME280;20381;54.498;18.206;2022-07-26T10:44:39;98991.71;;;23.27;58.60
34103;BME280;20381;54.498;18.206;2022-07-26T10:47:15;98974.84;;;23.42;59.00
34103;BME280;20381;54.498;18.206;2022-07-26T10:49:52;98977.94;;;23.94;58.97
34103;BME280;20381;54.498;18.206;2022-07-26T10:52:29;98967.36;;;24.27;58.91
34103;BME280;20381;54.498;18.206;2022-07-26T10:57:40;98966.66;;;24.90;58.37
34103;BME280;20381;54.498;18.206;2022-07-26T11:02:48;98975.13;;;24.94;57.61
34103;BME280;20381;54.498;18.206;2022-07-26T11:05:17;98983.28;;;25.15;57.97
34103;BME280;20381;54.498;18.206;2022-07-26T11:07:59;98990.83;;;25.27;57.56
34103;BME280;20381;54.498;18.206;2022-07-26T11:10:45;98983.12;;;25.28;57.08
34103;BME280;20381;54.498;18.206;2022-07-26T11:13:14;98976.43;;;25.57;57.10
34103;BME280;20381;54.498;18.206;2022-07-26T11:15:45;98986.27;;;25.46;56.05
34103;BME280;20381;54.498;18.206;2022-07-26T11:18:21;98985.95;;;25.11;55.65
34103;BME280;20381;54.498;18.206;2022-07-26T11:20:52;98990.61;;;25.13;56.09
34103;BME280;20381;54.498;18.206;2022-07-26T11:23:32;98976.73;;;25.33;56.12
34103;BME280;20381;54.498;18.206;2022-07-26T11:26:20;98984.00;;;25.64;55.92
34103;BME280;20381;54.498;18.206;2022-07-26T11:28:52;98994.41;;;25.89;55.81
34103;BME280;20381;54.498;18.206;2022-07-26T11:31:27;98999.28;;;25.45;54.51
34103;BME280;20381;54.498;18.206;2022-07-26T11:34:05;98998.88;;;24.89;53.46
34103;BME280;20381;54.498;18.206;2022-07-26T11:36:41;99005.78;;;24.14;53.93
34103;BME280;20381;54.498;18.206;2022-07-26T11:39:11;99011.80;;;23.89;54.40
34103;BME280;20381;54.498;18.206;2022-07-26T11:41:41;99008.75;;;23.57;53.81
34103;BME280;20381;54.498;18.206;2022-07-26T11:44:18;99003.08;;;23.60;54.54
34103;BME280;20381;54.498;18.206;2022-07-26T11:46:46;98995.83;;;24.08;55.23
34103;BME280;20381;54.498;18.206;2022-07-26T11:49:15;98987.72;;;24.24;53.48
34103;BME280;20381;54.498;18.206;2022-07-26T11:51:56;98994.91;;;24.24;54.01
34103;BME280;20381;54.498;18.206;2022-07-26T11:54:31;98995.28;;;24.44;54.20
34103;BME280;20381;54.498;18.206;2022-07-26T11:56:58;99001.42;;;24.21;53.38
34103;BME280;20381;54.498;18.206;2022-07-26T11:59:28;99008.09;;;24.21;53.69
34103;BME280;20381;54.498;18.206;2022-07-26T12:02:00;99009.98;;;24.12;53.43
34103;BME280;20381;54.498;18.206;2022-07-26T12:04:39;99004.27;;;24.43;52.87
34103;BME280;20381;54.498;18.206;2022-07-26T12:07:13;99009.63;;;24.62;53.82
34103;BME280;20381;54.498;18.206;2022-07-26T12:09:46;99003.55;;;24.87;53.48
34103;BME280;20381;54.498;18.206;2022-07-26T12:15:01;99010.53;;;25.55;53.98
34103;BME280;20381;54.498;18.206;2022-07-26T12:17:30;99001.55;;;25.78;53.73
34103;BME280;20381;54.498;18.206;2022-07-26T12:20:14;99000.11;;;25.60;53.07
34103;BME280;20381;54.498;18.206;2022-07-26T12:22:53;99003.39;;;25.37;53.09
34103;BME280;20381;54.498;18.206;2022-07-26T12:25:25;99010.66;;;25.43;53.27
34103;BME280;20381;54.498;18.206;2022-07-26T12:27:53;99002.86;;;24.93;52.17
34103;BME280;20381;54.498;18.206;2022-07-26T12:30:19;99012.06;;;24.71;52.85
34103;BME280;20381;54.498;18.206;2022-07-26T12:32:46;99012.65;;;24.35;51.86
34103;BME280;20381;54.498;18.206;2022-07-26T12:35:16;99013.06;;;24.24;52.88
34103;BME280;20381;54.498;18.206;2022-07-26T12:37:49;99001.57;;;24.51;52.87
34103;BME280;20381;54.498;18.206;2022-07-26T12:40:41;99011.16;;;24.60;51.77
34103;BME280;20381;54.498;18.206;2022-07-26T12:43:08;99012.92;;;24.49;52.13
34103;BME280;20381;54.498;18.206;2022-07-26T12:45:35;99008.84;;;24.34;52.63
34103;BME280;20381;54.498;18.206;2022-07-26T12:48:07;99011.72;;;24.28;52.25
34103;BME280;20381;54.498;18.206;2022-07-26T12:50:36;99017.31;;;24.15;52.42
34103;BME280;20381;54.498;18.206;2022-07-26T12:53:03;99007.77;;;24.20;52.89
34103;BME280;20381;54.498;18.206;2022-07-26T12:55:31;99002.95;;;24.39;52.45
34103;BME280;20381;54.498;18.206;2022-07-26T12:57:58;99007.89;;;24.50;51.99
34103;BME280;20381;54.498;18.206;2022-07-26T13:00:26;99010.84;;;24.59;52.76
34103;BME280;20381;54.498;18.206;2022-07-26T13:02:53;99010.84;;;24.59;52.76
34103;BME280;20381;54.498;18.206;2022-07-26T13:05:21;99016.13;;;24.63;52.11
34103;BME280;20381;54.498;18.206;2022-07-26T13:07:48;99021.88;;;24.29;52.09
34103;BME280;20381;54.498;18.206;2022-07-26T13:10:16;99021.52;;;24.09;52.42
34103;BME280;20381;54.498;18.206;2022-07-26T13:12:43;99015.06;;;24.26;52.32
34103;BME280;20381;54.498;18.206;2022-07-26T13:15:10;99013.25;;;23.96;51.73
34103;BME280;20381;54.498;18.206;2022-07-26T13:17:37;99014.70;;;23.71;52.45
34103;BME280;20381;54.498;18.206;2022-07-26T13:20:04;99017.02;;;23.78;52.64